aviador You're here:

KQD3 Decoded Metar

in
Report Time2017-04-25 05:56:00
UTC Time2017-04-25 06:27:54
Flight Rules mvfr MVFR
Wind100° at 04 kt
W.Rank100° ranks 11
Current wind is below 100° avg. (5.3)
Visibility6000 m
Phenomena:Haze
Clouds:N/A
Expected CloudBase > 4,800 ft AGL from Temp-Dew spread
CeilingNone
Temp33°C
Dew Point21°C (49% RH)
Heat Index36.0°C
QNH1008 hPa
Raw Report
METAR KQD3 250556Z AUTO 10004KT 6000 HZ CLR 33/21 A2978 RMK AO2 SLP082
T03280205 10329 20268 52020=

Extra information for KQD3:More info

Social comments